Time;durP1;ratioP1;P1;durP2;ratioP2;P2;SDS_P1;SDS_P2;PMS_P1;PMS_P2;Temp;Humidity;BMP_temperature;BMP_pressure;BME280_temperature;BME280_humidity;BME280_pressure;Samples;Min_cycle;Max_cycle;Signal;HPM_P1;HPM_P2
2021/12/22 00:00:59;;;;;;;;;;;;;;;-3.61;76.14;102613.75;5071310;28;20348;-77
2021/12/22 00:03:24;;;;;;;;;;;;;;;-3.65;75.61;102627.91;5055677;28;19927;-78
2021/12/22 00:05:51;;;;;;;;;;;;;;;-3.65;75.14;102621.81;5065620;28;19921;-78
2021/12/22 00:08:22;;;;;;;;;;;;;;;-3.70;74.84;102615.22;5070512;28;19920;-77
2021/12/22 00:10:47;;;;;;;;;;;;;;;-3.70;74.52;102616.13;5055009;28;20345;-75
2021/12/22 00:13:12;;;;;;;;;;;;;;;-3.75;74.21;102614.66;5065260;28;19927;-77
2021/12/22 00:15:38;;;;;;;;;;;;;;;-3.65;73.42;102615.03;5056341;28;20445;-77
2021/12/22 00:18:05;;;;;;;;;;;;;;;-3.65;72.53;102609.91;5073930;28;19999;-78
2021/12/22 00:20:30;;;;;;;;;;;;;;;-3.64;71.78;102603.06;5075199;28;19928;-77
2021/12/22 00:22:56;;;;;;;;;;;;;;;-3.69;71.38;102599.03;5075079;28;20359;-78
2021/12/22 00:25:25;;;;;;;;;;;;;;;-3.73;71.12;102594.25;5059357;28;19924;-78
2021/12/22 00:27:54;;;;;;;;;;;;;;;-3.79;71.01;102594.44;5074324;28;20030;-77
2021/12/22 00:30:20;;;;;;;;;;;;;;;-3.83;70.88;102598.28;5066205;28;19974;-78
2021/12/22 00:32:53;;;;;;;;;;;;;;;-3.83;70.80;102592.22;5062031;28;20283;-78
2021/12/22 00:35:21;;;;;;;;;;;;;;;-3.83;70.61;102585.41;5078490;28;19931;-78
2021/12/22 00:37:46;;;;;;;;;;;;;;;-3.78;70.30;102583.38;5072565;28;20343;-78
2021/12/22 00:40:12;;;;;;;;;;;;;;;-3.75;69.89;102588.00;5078618;28;19956;-79
2021/12/22 00:42:37;;;;;;;;;;;;;;;-3.79;69.68;102591.88;5066109;28;20490;-77
2021/12/22 00:45:03;;;;;;;;;;;;;;;-3.78;69.50;102588.53;5060768;28;19920;-78
2021/12/22 00:47:31;;;;;;;;;;;;;;;-3.76;69.24;102589.63;5067511;28;19950;-78
2021/12/22 00:50:03;;;;;;;;;;;;;;;-3.77;68.95;102580.09;5091662;28;19990;-77
2021/12/22 00:52:28;;;;;;;;;;;;;;;-3.86;68.87;102579.88;5067404;28;19920;-78
2021/12/22 00:54:53;;;;;;;;;;;;;;;-3.93;68.82;102581.53;5077005;28;19920;-77
2021/12/22 00:57:19;;;;;;;;;;;;;;;-3.94;68.74;102584.84;5055459;28;19973;-78
2021/12/22 00:59:45;;;;;;;;;;;;;;;-3.98;68.67;102575.81;5062179;28;20072;-78
2021/12/22 01:02:11;;;;;;;;;;;;;;;-3.94;68.54;102584.84;5066186;28;19928;-79
2021/12/22 01:04:37;;;;;;;;;;;;;;;-4.00;68.43;102579.88;5075740;28;19966;-79
2021/12/22 01:07:03;;;;;;;;;;;;;;;-4.04;68.43;102593.09;5077306;28;19974;-79
2021/12/22 01:09:30;;;;;;;;;;;;;;;-4.01;68.41;102585.75;5071016;28;19920;-78
2021/12/22 01:11:56;;;;;;;;;;;;;;;-4.04;68.37;102587.94;5069609;28;20011;-78
2021/12/22 01:14:22;;;;;;;;;;;;;;;-4.04;68.43;102586.31;5075740;28;19970;-78
2021/12/22 01:16:50;;;;;;;;;;;;;;;-4.09;68.47;102599.34;5076628;28;19920;-78
2021/12/22 01:19:22;;;;;;;;;;;;;;;-4.10;68.48;102600.06;5075322;28;20015;-78
2021/12/22 01:21:54;;;;;;;;;;;;;;;-4.12;68.46;102614.41;5058525;28;19920;-77
2021/12/22 01:24:31;;;;;;;;;;;;;;;-4.11;68.45;102595.66;5075251;28;19920;-78
2021/12/22 01:27:04;;;;;;;;;;;;;;;-4.13;68.41;102595.47;5063615;28;19920;-78
2021/12/22 01:29:30;;;;;;;;;;;;;;;-4.13;68.36;102598.06;5078111;28;19927;-78
2021/12/22 01:31:57;;;;;;;;;;;;;;;-4.17;68.36;102594.16;5057427;28;19916;-79
2021/12/22 01:34:23;;;;;;;;;;;;;;;-4.20;68.40;102595.44;5054876;28;20314;-78
2021/12/22 01:36:49;;;;;;;;;;;;;;;-4.24;68.49;102590.63;5071583;28;19917;-78
2021/12/22 01:39:15;;;;;;;;;;;;;;;-4.27;68.54;102587.69;5057815;28;19920;-79
2021/12/22 01:41:40;;;;;;;;;;;;;;;-4.28;68.60;102586.78;5074251;28;20402;-78
2021/12/22 01:44:08;;;;;;;;;;;;;;;-4.31;68.71;102588.06;5076213;28;19982;-78
2021/12/22 01:49:14;;;;;;;;;;;;;;;-4.30;68.77;102582.16;5089061;28;19920;-78
2021/12/22 01:51:45;;;;;;;;;;;;;;;-4.30;68.77;102587.31;5077246;28;19927;-79
2021/12/22 01:54:12;;;;;;;;;;;;;;;-4.30;68.75;102579.59;5073257;28;19948;-79
2021/12/22 01:56:38;;;;;;;;;;;;;;;-4.31;68.72;102580.34;5062304;28;19927;-78
2021/12/22 01:59:05;;;;;;;;;;;;;;;-4.30;68.66;102572.81;5065465;28;19924;-79
2021/12/22 02:01:33;;;;;;;;;;;;;;;-4.35;68.60;102569.69;5066890;28;19920;-79
2021/12/22 02:03:59;;;;;;;;;;;;;;;-4.35;68.57;102564.53;5072955;28;19927;-79
2021/12/22 02:06:24;;;;;;;;;;;;;;;-4.33;68.39;102563.06;5061626;28;19920;-79
2021/12/22 02:08:52;;;;;;;;;;;;;;;-4.31;68.30;102575.22;5070884;28;19960;-76
2021/12/22 02:11:18;;;;;;;;;;;;;;;-4.34;68.29;102566.34;5060780;28;19920;-78
2021/12/22 02:13:47;;;;;;;;;;;;;;;-4.35;68.30;102567.13;5060886;28;20015;-78
2021/12/22 02:16:16;;;;;;;;;;;;;;;-4.25;68.19;102565.69;5060998;28;20019;-78
2021/12/22 02:18:45;;;;;;;;;;;;;;;-4.20;67.91;102564.56;5063478;28;19940;-78
2021/12/22 02:21:10;;;;;;;;;;;;;;;-4.23;67.71;102565.09;5062822;28;20312;-79
2021/12/22 02:23:36;;;;;;;;;;;;;;;-4.10;67.43;102559.81;5066932;28;19920;-79
2021/12/22 02:26:15;;;;;;;;;;;;;;;-4.05;67.21;102566.44;5056900;28;19925;-79
2021/12/22 02:28:45;;;;;;;;;;;;;;;-4.07;67.07;102566.97;5065066;28;19921;-79
2021/12/22 02:31:17;;;;;;;;;;;;;;;-4.08;66.96;102571.22;5057545;28;19927;-79
2021/12/22 02:33:44;;;;;;;;;;;;;;;-4.17;66.88;102568.44;5060763;28;20285;-79
2021/12/22 02:38:42;;;;;;;;;;;;;;;-4.30;66.81;102577.03;5074696;28;19921;-78
2021/12/22 02:41:09;;;;;;;;;;;;;;;-4.30;66.76;102582.16;5057261;28;19920;-79
2021/12/22 02:43:42;;;;;;;;;;;;;;;-4.38;66.75;102582.16;5058867;28;19935;-79
2021/12/22 02:46:08;;;;;;;;;;;;;;;-4.41;66.78;102581.78;5064349;28;20016;-78
2021/12/22 02:48:33;;;;;;;;;;;;;;;-4.49;66.86;102595.31;5065832;28;19959;-79
2021/12/22 02:51:01;;;;;;;;;;;;;;;-4.54;66.90;102594.78;5066614;28;19924;-78
2021/12/22 02:53:37;;;;;;;;;;;;;;;-4.59;66.96;102593.28;5073406;28;19920;-79
2021/12/22 02:56:12;;;;;;;;;;;;;;;-4.60;66.99;102585.38;5066235;28;19925;-78
2021/12/22 03:04:03;;;;;;;;;;;;;;;-4.70;67.11;102593.59;5059758;28;20339;-79
2021/12/22 03:06:36;;;;;;;;;;;;;;;-4.67;67.09;102588.84;5041290;28;19916;-79
2021/12/22 03:09:22;;;;;;;;;;;;;;;-4.69;67.08;102580.94;5048933;28;20392;-78
2021/12/22 03:11:49;;;;;;;;;;;;;;;-4.70;67.14;102579.09;5045555;28;19924;-78
2021/12/22 03:14:15;;;;;;;;;;;;;;;-4.69;67.17;102580.03;5053102;28;19958;-78
2021/12/22 03:16:44;;;;;;;;;;;;;;;-4.71;67.19;102579.84;5036792;28;20272;-77
2021/12/22 03:19:13;;;;;;;;;;;;;;;-4.71;67.21;102573.75;5047995;28;19968;-77
2021/12/22 03:21:40;;;;;;;;;;;;;;;-4.70;67.28;102573.03;5054536;28;19967;-78
2021/12/22 03:24:06;;;;;;;;;;;;;;;-4.69;67.27;102575.78;5047303;28;19921;-77
2021/12/22 03:26:31;;;;;;;;;;;;;;;-4.65;67.21;102564.22;5035209;28;20279;-76
2021/12/22 03:29:01;;;;;;;;;;;;;;;-4.59;67.12;102559.84;5049420;28;20321;-78
2021/12/22 03:31:27;;;;;;;;;;;;;;;-4.51;66.98;102560.81;5036086;28;20367;-78
2021/12/22 03:33:52;;;;;;;;;;;;;;;-4.52;66.92;102561.56;5045217;28;20010;-77
2021/12/22 03:36:17;;;;;;;;;;;;;;;-4.56;66.88;102554.19;5038711;28;19993;-77
2021/12/22 03:38:43;;;;;;;;;;;;;;;-4.58;66.86;102553.09;5033603;28;19966;-77
2021/12/22 03:41:09;;;;;;;;;;;;;;;-4.61;66.84;102547.56;5044689;28;19920;-76
2021/12/22 03:43:35;;;;;;;;;;;;;;;-4.61;66.83;102556.19;5045936;28;19921;-76
2021/12/22 03:46:00;;;;;;;;;;;;;;;-4.61;66.82;102557.84;5053213;28;20313;-78
2021/12/22 03:48:28;;;;;;;;;;;;;;;-4.60;66.80;102559.66;5044217;28;20008;-77
2021/12/22 03:50:53;;;;;;;;;;;;;;;-4.57;66.73;102550.69;5025986;28;20019;-78
2021/12/22 03:53:20;;;;;;;;;;;;;;;-4.56;66.71;102547.38;5039677;28;20430;-78
2021/12/22 03:55:45;;;;;;;;;;;;;;;-4.61;66.69;102542.41;5041205;28;19960;-78
2021/12/22 03:58:10;;;;;;;;;;;;;;;-4.63;66.67;102544.81;5036345;28;19921;-78
2021/12/22 04:00:38;;;;;;;;;;;;;;;-4.63;66.69;102543.84;5041737;28;19921;-78
2021/12/22 04:03:04;;;;;;;;;;;;;;;-4.59;66.67;102541.84;5058692;28;20364;-79
2021/12/22 04:05:32;;;;;;;;;;;;;;;-4.60;66.63;102533.94;5052539;28;19947;-77
2021/12/22 04:07:58;;;;;;;;;;;;;;;-4.57;66.57;102544.63;5069570;28;19921;-77
2021/12/22 04:10:25;;;;;;;;;;;;;;;-4.58;66.54;102540.22;5056204;28;19928;-78
2021/12/22 04:12:53;;;;;;;;;;;;;;;-4.61;66.54;102535.63;5056809;28;19920;-78
2021/12/22 04:15:19;;;;;;;;;;;;;;;-4.64;66.58;102535.25;5055597;28;19960;-78
2021/12/22 04:17:46;;;;;;;;;;;;;;;-4.60;66.54;102531.38;5061833;28;20284;-78
2021/12/22 04:20:11;;;;;;;;;;;;;;;-4.63;66.54;102533.56;5070437;28;19964;-78
2021/12/22 04:22:37;;;;;;;;;;;;;;;-4.65;66.56;102524.75;5066057;28;19968;-78
2021/12/22 04:25:04;;;;;;;;;;;;;;;-4.65;66.56;102524.75;5059907;28;19929;-78
2021/12/22 04:27:33;;;;;;;;;;;;;;;-4.66;66.60;102515.19;5060669;28;20387;-78
2021/12/22 04:29:58;;;;;;;;;;;;;;;-4.61;66.56;102517.63;5055216;28;19929;-78
2021/12/22 04:32:23;;;;;;;;;;;;;;;-4.65;66.60;102517.06;5063777;28;20383;-77
2021/12/22 04:34:49;;;;;;;;;;;;;;;-4.65;66.61;102509.34;5059231;28;19916;-77
2021/12/22 04:37:18;;;;;;;;;;;;;;;-4.63;66.59;102510.44;5067537;28;19934;-78
2021/12/22 04:39:43;;;;;;;;;;;;;;;-4.60;66.59;102516.91;5066210;28;20011;-77
2021/12/22 04:42:10;;;;;;;;;;;;;;;-4.59;66.57;102503.28;5063248;28;20023;-78
2021/12/22 04:44:35;;;;;;;;;;;;;;;-4.61;66.57;102507.34;5058260;28;19927;-77
2021/12/22 04:47:01;;;;;;;;;;;;;;;-4.66;66.60;102508.44;5058969;28;19929;-78
2021/12/22 04:49:28;;;;;;;;;;;;;;;-4.61;66.52;102502.19;5058902;28;20039;-77
2021/12/22 04:51:55;;;;;;;;;;;;;;;-4.49;66.43;102501.84;5065307;28;19927;-77
2021/12/22 04:56:51;;;;;;;;;;;;;;;-4.55;66.38;102499.47;5067009;28;19925;-77
2021/12/22 04:59:17;;;;;;;;;;;;;;;-4.53;66.36;102500.56;5059655;28;20430;-77
2021/12/22 05:01:42;;;;;;;;;;;;;;;-4.55;66.36;102502.03;5069189;28;19924;-78
2021/12/22 05:04:07;;;;;;;;;;;;;;;-4.47;66.29;102495.22;5061578;28;20423;-78
2021/12/22 05:06:34;;;;;;;;;;;;;;;-4.48;66.26;102504.59;5055076;28;19927;-78
2021/12/22 05:09:04;;;;;;;;;;;;;;;-4.48;66.26;102495.97;5054683;28;19940;-79
2021/12/22 05:11:29;;;;;;;;;;;;;;;-4.41;66.19;102486.63;5054798;28;19964;-79
2021/12/22 05:13:55;;;;;;;;;;;;;;;-4.48;66.21;102488.28;5056097;28;19963;-79
2021/12/22 05:16:20;;;;;;;;;;;;;;;-4.43;66.15;102487.16;5056178;28;19921;-79
2021/12/22 05:21:13;;;;;;;;;;;;;;;-4.47;66.12;102485.88;5062733;28;19975;-77
2021/12/22 05:23:39;;;;;;;;;;;;;;;-4.47;66.08;102478.16;5069563;28;20009;-75
2021/12/22 05:26:04;;;;;;;;;;;;;;;-4.49;66.08;102478.72;5063931;28;19927;-77
2021/12/22 05:28:30;;;;;;;;;;;;;;;-4.49;66.06;102477.03;5060689;28;19924;-78
2021/12/22 05:30:55;;;;;;;;;;;;;;;-4.47;66.05;102475.59;5054859;28;19927;-77
2021/12/22 05:33:20;;;;;;;;;;;;;;;-4.54;66.06;102475.56;5055001;28;19951;-77
2021/12/22 05:35:46;;;;;;;;;;;;;;;-4.57;66.07;102478.72;5056295;28;19927;-78
2021/12/22 05:38:12;;;;;;;;;;;;;;;-4.60;66.06;102478.34;5053341;28;20572;-78
2021/12/22 05:40:37;;;;;;;;;;;;;;;-4.65;66.10;102483.63;5053221;28;19924;-78
2021/12/22 05:43:03;;;;;;;;;;;;;;;-4.65;66.11;102483.63;5070133;28;19932;-78
2021/12/22 05:45:28;;;;;;;;;;;;;;;-4.63;66.10;102479.59;5074335;28;19963;-79
2021/12/22 05:47:54;;;;;;;;;;;;;;;-4.64;66.10;102478.69;5067258;28;19921;-79
2021/12/22 05:50:20;;;;;;;;;;;;;;;-4.64;66.13;102485.47;5061013;28;20386;-79
2021/12/22 05:52:47;;;;;;;;;;;;;;;-4.66;66.14;102482.72;5052241;28;19927;-78
2021/12/22 05:55:12;;;;;;;;;;;;;;;-4.69;66.19;102488.41;5057802;28;20403;-78
2021/12/22 05:57:39;;;;;;;;;;;;;;;-4.70;66.19;102481.41;5061837;28;19921;-78
2021/12/22 06:00:05;;;;;;;;;;;;;;;-4.71;66.19;102484.72;5063148;28;19920;-78
2021/12/22 06:02:31;;;;;;;;;;;;;;;-4.73;66.21;102478.47;5060071;28;19924;-79
2021/12/22 06:04:56;;;;;;;;;;;;;;;-4.78;66.24;102482.13;5069501;28;19920;-79
2021/12/22 06:07:22;;;;;;;;;;;;;;;-4.73;66.23;102485.25;5055656;28;20083;-78
2021/12/22 06:09:48;;;;;;;;;;;;;;;-4.74;66.23;102475.69;5074286;28;19963;-78
2021/12/22 06:12:13;;;;;;;;;;;;;;;-4.78;66.24;102482.13;5040950;28;20341;-78
2021/12/22 06:14:39;;;;;;;;;;;;;;;-4.80;66.28;102483.59;5061889;28;19920;-78
2021/12/22 06:17:04;;;;;;;;;;;;;;;-4.83;66.30;102483.22;5075005;28;20414;-79
2021/12/22 06:19:30;;;;;;;;;;;;;;;-4.76;66.25;102475.50;5043759;28;19927;-78
2021/12/22 06:21:55;;;;;;;;;;;;;;;-4.72;66.24;102474.25;5062367;28;20614;-77
2021/12/22 06:24:20;;;;;;;;;;;;;;;-4.70;66.20;102465.97;5071843;28;19920;-77
2021/12/22 06:26:45;;;;;;;;;;;;;;;-4.75;66.21;102477.34;5064488;28;19921;-77
2021/12/22 06:29:12;;;;;;;;;;;;;;;-4.78;66.23;102469.28;5054041;28;20459;-78
2021/12/22 06:31:38;;;;;;;;;;;;;;;-4.81;66.27;102465.41;5055733;28;20348;-76
2021/12/22 06:34:04;;;;;;;;;;;;;;;-4.83;66.29;102464.28;5059071;28;19928;-77
2021/12/22 06:36:29;;;;;;;;;;;;;;;-4.81;66.29;102462.84;5091532;28;19921;-78
2021/12/22 06:38:55;;;;;;;;;;;;;;;-4.81;66.29;102461.19;5045897;28;19928;-78
2021/12/22 06:41:21;;;;;;;;;;;;;;;-4.73;66.23;102462.13;5054362;28;19920;-77
2021/12/22 06:43:46;;;;;;;;;;;;;;;-4.74;66.21;102468.00;5063099;28;19920;-76
2021/12/22 06:46:11;;;;;;;;;;;;;;;-4.84;66.25;102476.22;5076299;28;20052;-78
2021/12/22 06:48:37;;;;;;;;;;;;;;;-4.84;66.28;102477.88;5061394;28;19920;-78
2021/12/22 06:51:03;;;;;;;;;;;;;;;-4.71;66.23;102481.22;5070072;28;19924;-75
2021/12/22 06:53:31;;;;;;;;;;;;;;;-4.72;66.25;102467.47;5063912;28;19920;-77
2021/12/22 06:55:56;;;;;;;;;;;;;;;-4.72;66.26;102481.97;5059983;28;19928;-77
2021/12/22 06:58:21;;;;;;;;;;;;;;;-4.58;66.20;102481.09;5075443;28;19920;-78
2021/12/22 07:00:47;;;;;;;;;;;;;;;-4.51;66.18;102473.38;5065093;28;20252;-75
2021/12/22 07:03:13;;;;;;;;;;;;;;;-4.47;66.17;102474.66;5044382;28;19928;-77
2021/12/22 07:05:38;;;;;;;;;;;;;;;-4.44;66.19;102477.59;5071857;28;19955;-74
2021/12/22 07:08:04;;;;;;;;;;;;;;;-4.41;66.22;102473.78;5087827;28;20402;-76
2021/12/22 07:10:30;;;;;;;;;;;;;;;-4.42;66.24;102469.34;5059079;28;19920;-75
2021/12/22 07:12:55;;;;;;;;;;;;;;;-4.51;66.33;102473.38;5067343;28;19928;-78
2021/12/22 07:15:22;;;;;;;;;;;;;;;-4.54;66.40;102473.94;5056012;28;19921;-77
2021/12/22 07:17:50;;;;;;;;;;;;;;;-4.55;66.43;102471.19;5068636;28;19928;-77
2021/12/22 07:20:15;;;;;;;;;;;;;;;-4.66;66.54;102471.50;5088079;28;20260;-77
2021/12/22 07:22:41;;;;;;;;;;;;;;;-4.73;66.60;102460.47;5089817;28;19920;-77
2021/12/22 07:25:07;;;;;;;;;;;;;;;-4.64;66.59;102463.25;5070481;28;19927;-78
2021/12/22 07:27:33;;;;;;;;;;;;;;;-4.57;66.57;102467.47;5055723;28;19916;-78
2021/12/22 07:29:59;;;;;;;;;;;;;;;-4.59;66.63;102461.25;5059627;28;19997;-78
2021/12/22 07:32:25;;;;;;;;;;;;;;;-4.58;66.67;102460.53;5093646;28;19946;-77
2021/12/22 07:35:00;;;;;;;;;;;;;;;-4.60;66.71;102452.63;5074410;28;20372;-75
2021/12/22 07:37:35;;;;;;;;;;;;;;;-4.55;66.73;102448.03;5075752;28;20333;-76
2021/12/22 07:40:07;;;;;;;;;;;;;;;-4.54;66.76;102448.22;5072604;28;20016;-78
2021/12/22 07:42:33;;;;;;;;;;;;;;;-4.59;66.84;102445.81;5059566;28;19928;-77
2021/12/22 07:44:58;;;;;;;;;;;;;;;-4.56;66.87;102453.91;5059273;28;19960;-78
2021/12/22 07:47:27;;;;;;;;;;;;;;;-4.54;66.89;102449.88;5072457;28;19966;-77
2021/12/22 07:49:52;;;;;;;;;;;;;;;-4.53;66.92;102446.56;5062339;28;19924;-76
2021/12/22 07:52:17;;;;;;;;;;;;;;;-4.56;66.98;102452.25;5069325;28;20431;-77
2021/12/22 07:54:43;;;;;;;;;;;;;;;-4.56;67.04;102454.81;5078590;28;19920;-76
2021/12/22 07:57:08;;;;;;;;;;;;;;;-4.53;67.09;102459.44;5073468;28;19920;-76
2021/12/22 07:59:34;;;;;;;;;;;;;;;-4.51;67.08;102463.09;5075071;28;19947;-77
2021/12/22 08:01:59;;;;;;;;;;;;;;;-4.55;67.17;102466.94;5063541;28;19925;-75
2021/12/22 08:04:24;;;;;;;;;;;;;;;-4.52;67.21;102469.91;5071816;28;19984;-77
2021/12/22 08:06:50;;;;;;;;;;;;;;;-4.55;67.31;102464.38;5064972;28;20284;-75
2021/12/22 08:09:16;;;;;;;;;;;;;;;-4.52;67.42;102471.56;5056793;28;20360;-76
2021/12/22 08:11:41;;;;;;;;;;;;;;;-4.45;67.43;102475.78;5056005;28;19920;-77
2021/12/22 08:14:07;;;;;;;;;;;;;;;-4.41;67.48;102481.50;5062364;28;19920;-77
2021/12/22 08:16:32;;;;;;;;;;;;;;;-4.43;67.56;102475.22;5075032;28;20364;-77
2021/12/22 08:18:57;;;;;;;;;;;;;;;-4.41;67.64;102470.25;5068086;28;20007;-75
2021/12/22 08:21:22;;;;;;;;;;;;;;;-4.30;67.63;102466.41;5060006;28;20272;-77
2021/12/22 08:23:48;;;;;;;;;;;;;;;-4.25;67.68;102465.34;5067546;28;19927;-76
2021/12/22 08:26:13;;;;;;;;;;;;;;;-4.23;67.76;102472.50;5071121;28;19921;-76
2021/12/22 08:28:40;;;;;;;;;;;;;;;-4.20;67.87;102469.38;5054864;28;19928;-76
2021/12/22 08:31:06;;;;;;;;;;;;;;;-4.18;67.98;102465.34;5054419;28;19921;-78
2021/12/22 08:33:37;;;;;;;;;;;;;;;-4.09;68.06;102457.81;5055177;28;20019;-77
2021/12/22 08:38:50;;;;;;;;;;;;;;;-4.15;68.49;102452.84;5057200;28;19934;-75
2021/12/22 08:41:18;;;;;;;;;;;;;;;-4.11;68.63;102457.63;5061196;28;19948;-75
2021/12/22 08:43:45;;;;;;;;;;;;;;;-4.05;68.76;102450.66;5074174;28;19920;-76
2021/12/22 08:46:10;;;;;;;;;;;;;;;-4.04;68.93;102441.25;5070854;28;19917;-76
2021/12/22 08:48:43;;;;;;;;;;;;;;;-4.04;69.15;102444.78;5067747;28;19928;-77
2021/12/22 08:51:09;;;;;;;;;;;;;;;-4.02;69.32;102444.97;5057539;28;20400;-75
2021/12/22 08:53:34;;;;;;;;;;;;;;;-3.94;69.46;102446.78;5060075;28;19920;-74
2021/12/22 08:55:59;;;;;;;;;;;;;;;-3.88;69.59;102447.53;5073612;28;19916;-74
2021/12/22 08:58:24;;;;;;;;;;;;;;;-3.79;69.74;102445.13;5072821;28;19925;-76
2021/12/22 09:00:50;;;;;;;;;;;;;;;-3.68;69.88;102442.16;5071662;28;19921;-75
2021/12/22 09:03:15;;;;;;;;;;;;;;;-3.67;70.23;102443.97;5064922;28;19924;-74
2021/12/22 09:05:40;;;;;;;;;;;;;;;-3.57;70.64;102450.22;5072700;28;19975;-75
2021/12/22 09:08:08;;;;;;;;;;;;;;;-3.50;71.04;102452.78;5053608;28;19921;-75
2021/12/22 09:10:33;;;;;;;;;;;;;;;-3.49;71.71;102450.41;5060702;28;19920;-72
2021/12/22 09:12:59;;;;;;;;;;;;;;;-3.42;72.29;102446.88;5057393;28;19928;-76
2021/12/22 09:15:27;;;;;;;;;;;;;;;-3.35;72.93;102449.44;5068301;28;19920;-74
2021/12/22 09:17:54;;;;;;;;;;;;;;;-3.33;73.89;102445.38;5065897;28;20487;-76
2021/12/22 09:20:19;;;;;;;;;;;;;;;-3.20;74.65;102451.97;5073851;28;19938;-75
2021/12/22 09:22:45;;;;;;;;;;;;;;;-3.15;75.85;102463.75;5070928;28;20068;-76
2021/12/22 09:25:10;;;;;;;;;;;;;;;-2.99;76.84;102462.19;5071757;28;19928;-76
2021/12/22 09:27:36;;;;;;;;;;;;;;;-3.07;78.83;102462.97;5071229;28;20337;-76
2021/12/22 09:30:01;;;;;;;;;;;;;;;-3.08;81.47;102455.97;5073752;28;19925;-76
2021/12/22 09:32:26;;;;;;;;;;;;;;;-3.06;84.14;102449.34;5058055;28;19927;-77
2021/12/22 09:34:52;;;;;;;;;;;;;;;-3.11;87.96;102448.81;5054249;28;20003;-77
2021/12/22 09:37:18;;;;;;;;;;;;;;;-3.14;91.41;102450.09;5063516;28;20022;-77
2021/12/22 09:39:43;;;;;;;;;;;;;;;-3.18;93.89;102443.69;5074335;28;19952;-77
2021/12/22 09:42:09;;;;;;;;;;;;;;;-3.18;95.71;102448.84;5065267;28;20062;-78
2021/12/22 09:44:42;;;;;;;;;;;;;;;-3.16;97.28;102451.59;5056180;28;19943;-77
2021/12/22 09:47:08;;;;;;;;;;;;;;;-3.08;97.77;102451.75;5066456;28;19924;-77
2021/12/22 09:49:48;;;;;;;;;;;;;;;-3.11;100.00;102455.59;5054915;28;20273;-77
2021/12/22 09:52:21;;;;;;;;;;;;;;;-3.05;100.00;102455.41;5055165;28;19986;-78
2021/12/22 09:54:51;;;;;;;;;;;;;;;-3.00;100.00;102449.13;5055960;28;19925;-76
2021/12/22 09:57:20;;;;;;;;;;;;;;;-2.88;100.00;102441.13;5053975;28;19928;-77
2021/12/22 09:59:46;;;;;;;;;;;;;;;-2.80;100.00;102448.84;5061246;28;19928;-78
2021/12/22 10:02:15;;;;;;;;;;;;;;;-2.77;100.00;102441.47;5072894;28;19965;-78
2021/12/22 10:04:41;;;;;;;;;;;;;;;-2.59;100.00;102446.16;5071775;28;19920;-78
2021/12/22 10:07:08;;;;;;;;;;;;;;;-2.40;100.00;102438.84;5077316;28;19950;-78
2021/12/22 10:09:41;;;;;;;;;;;;;;;-2.31;100.00;102441.53;5075877;28;19958;-79
2021/12/22 10:12:12;;;;;;;;;;;;;;;-2.24;100.00;102444.06;5077651;28;19970;-78
2021/12/22 10:14:46;;;;;;;;;;;;;;;-2.20;100.00;102437.59;5064303;28;19967;-79
2021/12/22 10:17:24;;;;;;;;;;;;;;;-2.13;100.00;102437.50;5060152;28;19959;-78
2021/12/22 10:19:53;;;;;;;;;;;;;;;-2.11;100.00;102443.78;5065530;28;20023;-78
2021/12/22 10:22:19;;;;;;;;;;;;;;;-2.08;100.00;102432.88;5063243;28;19920;-78
2021/12/22 10:24:46;;;;;;;;;;;;;;;-1.93;100.00;102437.16;5066237;28;19927;-79
2021/12/22 10:27:22;;;;;;;;;;;;;;;-1.89;100.00;102434.19;5078748;28;19948;-78
2021/12/22 10:29:48;;;;;;;;;;;;;;;-1.81;100.00;102435.94;5065860;28;19933;-78
2021/12/22 10:32:14;;;;;;;;;;;;;;;-1.73;100.00;102438.47;5056395;28;20281;-78
2021/12/22 10:34:54;;;;;;;;;;;;;;;-1.68;100.00;102443.41;5062510;28;19924;-78
2021/12/22 10:37:37;;;;;;;;;;;;;;;-1.59;100.00;102437.41;5054306;28;19951;-78
2021/12/22 10:40:22;;;;;;;;;;;;;;;-1.61;100.00;102438.91;5037005;28;19936;-78
2021/12/22 10:42:47;;;;;;;;;;;;;;;-1.60;100.00;102431.34;5054739;28;19968;-78
2021/12/22 10:45:14;;;;;;;;;;;;;;;-1.54;100.00;102436.25;5058161;28;19920;-78
2021/12/22 10:50:37;;;;;;;;;;;;;;;-1.55;100.00;102430.16;5062140;28;19923;-79
2021/12/22 10:53:03;;;;;;;;;;;;;;;-1.42;100.00;102431.50;5052799;28;20470;-77
2021/12/22 10:55:35;;;;;;;;;;;;;;;-1.36;100.00;102424.44;5064518;28;19924;-77
2021/12/22 10:58:01;;;;;;;;;;;;;;;-1.32;100.00;102429.16;5067377;28;20263;-78
2021/12/22 11:00:26;;;;;;;;;;;;;;;-1.30;100.00;102422.50;5059289;28;19979;-77
2021/12/22 11:03:02;;;;;;;;;;;;;;;-1.16;100.00;102427.50;5068381;28;19966;-78
2021/12/22 11:05:30;;;;;;;;;;;;;;;-1.28;100.00;102415.84;5058190;28;20299;-78
2021/12/22 11:07:59;;;;;;;;;;;;;;;-1.16;100.00;102412.00;5059942;28;19921;-78
2021/12/22 11:10:25;;;;;;;;;;;;;;;-1.27;100.00;102402.16;5088674;28;19921;-78
2021/12/22 11:12:59;;;;;;;;;;;;;;;-1.24;100.00;102398.97;5073905;28;20291;-77
2021/12/22 11:15:25;;;;;;;;;;;;;;;-1.10;100.00;102402.31;5073508;28;19927;-76
2021/12/22 11:17:50;;;;;;;;;;;;;;;-1.09;100.00;102398.03;5062076;28;19920;-77
2021/12/22 11:20:15;;;;;;;;;;;;;;;-1.04;100.00;102391.72;5069456;28;19925;-77
2021/12/22 11:23:02;;;;;;;;;;;;;;;-0.99;100.00;102380.19;5088937;28;19921;-77
2021/12/22 11:25:28;;;;;;;;;;;;;;;-0.92;100.00;102372.34;5056412;28;20736;-77
2021/12/22 11:28:04;;;;;;;;;;;;;;;-0.93;100.00;102367.91;5066902;28;19923;-77
2021/12/22 11:30:30;;;;;;;;;;;;;;;-0.90;100.00;102367.34;5078156;28;20292;-77
2021/12/22 11:32:55;;;;;;;;;;;;;;;-0.88;100.00;102363.22;5065353;28;19965;-77
2021/12/22 11:35:22;;;;;;;;;;;;;;;-0.94;100.00;102353.13;5055781;28;19921;-77
2021/12/22 11:37:49;;;;;;;;;;;;;;;-0.88;100.00;102352.88;5058352;28;19947;-78
2021/12/22 11:40:17;;;;;;;;;;;;;;;-0.86;100.00;102348.78;5074189;28;19927;-76
2021/12/22 11:42:42;;;;;;;;;;;;;;;-0.80;100.00;102356.28;5059245;28;19920;-78
2021/12/22 11:45:12;;;;;;;;;;;;;;;-0.79;100.00;102347.78;5065004;28;20002;-77
2021/12/22 11:47:39;;;;;;;;;;;;;;;-0.87;100.00;102338.28;5055271;28;20007;-78
2021/12/22 11:50:06;;;;;;;;;;;;;;;-0.80;100.00;102335.59;5055876;28;19969;-78
2021/12/22 11:52:33;;;;;;;;;;;;;;;-0.67;100.00;102340.38;5056996;28;19965;-78
2021/12/22 11:55:05;;;;;;;;;;;;;;;-0.77;100.00;102331.66;5089069;28;19920;-77
2021/12/22 11:57:30;;;;;;;;;;;;;;;-0.76;100.00;102333.50;5086466;28;19936;-77
2021/12/22 11:59:55;;;;;;;;;;;;;;;-0.93;100.00;102329.13;5075102;28;19920;-78
2021/12/22 12:02:25;;;;;;;;;;;;;;;-0.86;100.00;102332.34;5067303;28;20467;-78
2021/12/22 12:04:52;;;;;;;;;;;;;;;-0.95;100.00;102328.06;5070104;28;19920;-78
2021/12/22 12:07:38;;;;;;;;;;;;;;;-0.95;100.00;102328.06;5053528;28;19917;-78
2021/12/22 12:10:22;;;;;;;;;;;;;;;-0.91;100.00;102321.53;5072530;28;20003;-78
2021/12/22 12:12:50;;;;;;;;;;;;;;;-0.92;100.00;102319.69;5066422;28;20381;-78
2021/12/22 12:15:36;;;;;;;;;;;;;;;-0.94;100.00;102331.53;5069045;28;19925;-78
2021/12/22 12:23:35;;;;;;;;;;;;;;;-0.85;100.00;102313.50;5073303;28;20541;-78
2021/12/22 12:26:04;;;;;;;;;;;;;;;-0.83;100.00;102318.06;5070099;28;19947;-78
2021/12/22 12:28:43;;;;;;;;;;;;;;;-0.73;100.00;102315.69;5065591;28;19920;-77
2021/12/22 12:31:09;;;;;;;;;;;;;;;-0.62;100.00;102314.25;5074102;28;19997;-78
2021/12/22 12:33:44;;;;;;;;;;;;;;;-0.70;100.00;102312.50;5057040;28;20420;-77
2021/12/22 12:36:11;;;;;;;;;;;;;;;-0.59;100.00;102317.16;5056046;28;19974;-77
2021/12/22 12:38:44;;;;;;;;;;;;;;;-0.68;100.00;102315.25;5068422;28;20325;-78
2021/12/22 12:41:14;;;;;;;;;;;;;;;-0.63;100.00;102316.66;5075248;28;20252;-78
2021/12/22 12:43:46;;;;;;;;;;;;;;;-0.66;100.00;102313.75;5075329;28;19920;-78
2021/12/22 12:46:23;;;;;;;;;;;;;;;-0.65;100.00;102300.97;5076468;28;20279;-77
2021/12/22 12:49:11;;;;;;;;;;;;;;;-0.59;100.00;102303.28;5073870;28;20019;-77
2021/12/22 12:51:38;;;;;;;;;;;;;;;-0.59;100.00;102305.84;5061500;28;19920;-77
2021/12/22 12:54:03;;;;;;;;;;;;;;;-0.54;100.00;102304.69;5056369;28;20129;-79
2021/12/22 12:56:33;;;;;;;;;;;;;;;-0.58;100.00;102298.25;5058766;28;19935;-80
2021/12/22 12:59:04;;;;;;;;;;;;;;;-0.52;100.00;102297.09;5066179;28;20085;-79
2021/12/22 13:01:45;;;;;;;;;;;;;;;-0.51;100.00;102294.66;5072801;28;19928;-79